sensor_id;sensor_type;location;lat;lon;timestamp;P1;durP1;ratioP1;P2;durP2;ratioP2
29724;SDS011;16636;48.394;15.468;2022-08-06T00:02:22;5.28;;;2.20;;
29724;SDS011;16636;48.394;15.468;2022-08-06T00:04:50;2.67;;;2.10;;
29724;SDS011;16636;48.394;15.468;2022-08-06T00:07:17;2.75;;;2.40;;
29724;SDS011;16636;48.394;15.468;2022-08-06T00:09:43;3.97;;;1.75;;
29724;SDS011;16636;48.394;15.468;2022-08-06T00:12:10;2.05;;;1.90;;
29724;SDS011;16636;48.394;15.468;2022-08-06T00:14:36;7.85;;;2.38;;
29724;SDS011;16636;48.394;15.468;2022-08-06T00:17:02;2.80;;;2.20;;
29724;SDS011;16636;48.394;15.468;2022-08-06T00:19:28;6.75;;;2.20;;
29724;SDS011;16636;48.394;15.468;2022-08-06T00:21:54;4.03;;;2.33;;
29724;SDS011;16636;48.394;15.468;2022-08-06T00:24:21;6.30;;;3.03;;
29724;SDS011;16636;48.394;15.468;2022-08-06T00:26:47;5.47;;;2.30;;
29724;SDS011;16636;48.394;15.468;2022-08-06T00:29:13;3.40;;;1.88;;
29724;SDS011;16636;48.394;15.468;2022-08-06T00:31:39;2.95;;;2.30;;
29724;SDS011;16636;48.394;15.468;2022-08-06T00:36:54;3.45;;;2.00;;
29724;SDS011;16636;48.394;15.468;2022-08-06T00:39:20;6.53;;;2.58;;
29724;SDS011;16636;48.394;15.468;2022-08-06T00:41:46;3.33;;;2.17;;
29724;SDS011;16636;48.394;15.468;2022-08-06T00:44:12;5.55;;;2.75;;
29724;SDS011;16636;48.394;15.468;2022-08-06T00:46:39;4.75;;;2.63;;
29724;SDS011;16636;48.394;15.468;2022-08-06T00:49:05;4.68;;;2.80;;
29724;SDS011;16636;48.394;15.468;2022-08-06T00:51:32;6.25;;;2.30;;
29724;SDS011;16636;48.394;15.468;2022-08-06T00:54:00;5.68;;;2.95;;
29724;SDS011;16636;48.394;15.468;2022-08-06T00:56:38;3.63;;;2.33;;
29724;SDS011;16636;48.394;15.468;2022-08-06T00:59:05;7.95;;;2.20;;
29724;SDS011;16636;48.394;15.468;2022-08-06T01:01:31;4.80;;;2.25;;
29724;SDS011;16636;48.394;15.468;2022-08-06T01:03:58;7.03;;;2.72;;
29724;SDS011;16636;48.394;15.468;2022-08-06T01:06:24;4.50;;;2.40;;
29724;SDS011;16636;48.394;15.468;2022-08-06T01:08:50;2.95;;;2.30;;
29724;SDS011;16636;48.394;15.468;2022-08-06T01:11:16;6.88;;;2.72;;
29724;SDS011;16636;48.394;15.468;2022-08-06T01:13:42;4.38;;;2.45;;
29724;SDS011;16636;48.394;15.468;2022-08-06T01:16:29;5.28;;;2.70;;
29724;SDS011;16636;48.394;15.468;2022-08-06T01:28:23;7.72;;;2.67;;
29724;SDS011;16636;48.394;15.468;2022-08-06T01:31:06;3.88;;;2.53;;
29724;SDS011;16636;48.394;15.468;2022-08-06T01:33:40;4.80;;;2.40;;
29724;SDS011;16636;48.394;15.468;2022-08-06T01:36:11;8.00;;;2.88;;
29724;SDS011;16636;48.394;15.468;2022-08-06T01:38:43;8.25;;;3.30;;
29724;SDS011;16636;48.394;15.468;2022-08-06T01:41:13;6.85;;;2.90;;
29724;SDS011;16636;48.394;15.468;2022-08-06T01:44:03;6.00;;;3.20;;
29724;SDS011;16636;48.394;15.468;2022-08-06T01:46:39;6.82;;;2.63;;
29724;SDS011;16636;48.394;15.468;2022-08-06T01:49:08;6.82;;;2.80;;
29724;SDS011;16636;48.394;15.468;2022-08-06T01:51:36;5.50;;;3.00;;
29724;SDS011;16636;48.394;15.468;2022-08-06T01:54:06;7.07;;;2.95;;
29724;SDS011;16636;48.394;15.468;2022-08-06T01:56:35;7.55;;;2.78;;
29724;SDS011;16636;48.394;15.468;2022-08-06T01:59:04;7.90;;;3.03;;
29724;SDS011;16636;48.394;15.468;2022-08-06T02:01:32;4.63;;;2.95;;
29724;SDS011;16636;48.394;15.468;2022-08-06T02:04:01;13.77;;;2.88;;
29724;SDS011;16636;48.394;15.468;2022-08-06T02:06:33;4.50;;;3.35;;
29724;SDS011;16636;48.394;15.468;2022-08-06T02:09:04;7.07;;;3.05;;
29724;SDS011;16636;48.394;15.468;2022-08-06T02:11:32;6.90;;;2.40;;
29724;SDS011;16636;48.394;15.468;2022-08-06T02:14:01;2.83;;;2.25;;
29724;SDS011;16636;48.394;15.468;2022-08-06T02:16:29;4.53;;;3.00;;
29724;SDS011;16636;48.394;15.468;2022-08-06T02:18:58;5.43;;;2.42;;
29724;SDS011;16636;48.394;15.468;2022-08-06T02:21:27;5.68;;;2.58;;
29724;SDS011;16636;48.394;15.468;2022-08-06T02:24:10;6.28;;;2.55;;
29724;SDS011;16636;48.394;15.468;2022-08-06T02:26:39;9.35;;;2.67;;
29724;SDS011;16636;48.394;15.468;2022-08-06T02:29:09;4.70;;;2.70;;
29724;SDS011;16636;48.394;15.468;2022-08-06T02:31:41;10.07;;;3.35;;
29724;SDS011;16636;48.394;15.468;2022-08-06T02:34:08;4.50;;;2.53;;
29724;SDS011;16636;48.394;15.468;2022-08-06T02:42:31;4.18;;;2.63;;
29724;SDS011;16636;48.394;15.468;2022-08-06T02:47:21;4.07;;;2.53;;
29724;SDS011;16636;48.394;15.468;2022-08-06T02:49:54;7.50;;;2.53;;
29724;SDS011;16636;48.394;15.468;2022-08-06T02:55:29;10.63;;;3.10;;
29724;SDS011;16636;48.394;15.468;2022-08-06T02:57:54;5.05;;;2.83;;
29724;SDS011;16636;48.394;15.468;2022-08-06T03:00:23;3.58;;;2.83;;
29724;SDS011;16636;48.394;15.468;2022-08-06T03:02:52;4.15;;;2.92;;
29724;SDS011;16636;48.394;15.468;2022-08-06T03:05:23;7.07;;;2.85;;
29724;SDS011;16636;48.394;15.468;2022-08-06T03:07:50;4.05;;;2.67;;
29724;SDS011;16636;48.394;15.468;2022-08-06T03:10:18;5.75;;;3.10;;
29724;SDS011;16636;48.394;15.468;2022-08-06T03:12:45;9.10;;;2.63;;
29724;SDS011;16636;48.394;15.468;2022-08-06T03:15:12;5.15;;;2.90;;
29724;SDS011;16636;48.394;15.468;2022-08-06T03:17:41;6.38;;;2.75;;
29724;SDS011;16636;48.394;15.468;2022-08-06T03:20:18;4.72;;;2.95;;
29724;SDS011;16636;48.394;15.468;2022-08-06T03:22:48;3.65;;;2.90;;
29724;SDS011;16636;48.394;15.468;2022-08-06T03:25:16;10.73;;;3.78;;
29724;SDS011;16636;48.394;15.468;2022-08-06T03:27:47;3.15;;;2.85;;
29724;SDS011;16636;48.394;15.468;2022-08-06T03:30:15;5.07;;;3.13;;
29724;SDS011;16636;48.394;15.468;2022-08-06T03:32:41;4.75;;;3.28;;
29724;SDS011;16636;48.394;15.468;2022-08-06T03:35:09;5.45;;;2.40;;
29724;SDS011;16636;48.394;15.468;2022-08-06T03:37:36;5.00;;;2.90;;
29724;SDS011;16636;48.394;15.468;2022-08-06T03:40:04;4.78;;;2.75;;
29724;SDS011;16636;48.394;15.468;2022-08-06T03:42:31;3.88;;;2.47;;
29724;SDS011;16636;48.394;15.468;2022-08-06T03:44:57;3.78;;;2.75;;
29724;SDS011;16636;48.394;15.468;2022-08-06T03:47:25;4.03;;;2.88;;
29724;SDS011;16636;48.394;15.468;2022-08-06T03:52:32;4.90;;;3.13;;
29724;SDS011;16636;48.394;15.468;2022-08-06T03:55:03;6.05;;;2.90;;
29724;SDS011;16636;48.394;15.468;2022-08-06T03:57:35;4.97;;;2.70;;
29724;SDS011;16636;48.394;15.468;2022-08-06T04:00:07;4.28;;;2.88;;
29724;SDS011;16636;48.394;15.468;2022-08-06T04:02:38;5.82;;;3.13;;
29724;SDS011;16636;48.394;15.468;2022-08-06T04:05:08;3.35;;;2.67;;
29724;SDS011;16636;48.394;15.468;2022-08-06T04:07:37;6.20;;;3.28;;
29724;SDS011;16636;48.394;15.468;2022-08-06T04:10:04;4.30;;;2.95;;
29724;SDS011;16636;48.394;15.468;2022-08-06T04:12:32;5.15;;;3.10;;
29724;SDS011;16636;48.394;15.468;2022-08-06T04:14:59;5.78;;;2.92;;
29724;SDS011;16636;48.394;15.468;2022-08-06T04:17:26;7.50;;;3.42;;
29724;SDS011;16636;48.394;15.468;2022-08-06T04:19:53;3.05;;;2.80;;
29724;SDS011;16636;48.394;15.468;2022-08-06T04:22:20;5.90;;;3.00;;
29724;SDS011;16636;48.394;15.468;2022-08-06T04:24:47;2.63;;;2.40;;
29724;SDS011;16636;48.394;15.468;2022-08-06T04:27:13;4.70;;;2.80;;
29724;SDS011;16636;48.394;15.468;2022-08-06T04:29:40;4.72;;;2.60;;
29724;SDS011;16636;48.394;15.468;2022-08-06T04:32:09;7.00;;;2.80;;
29724;SDS011;16636;48.394;15.468;2022-08-06T04:34:37;5.25;;;2.85;;
29724;SDS011;16636;48.394;15.468;2022-08-06T04:37:05;4.82;;;3.20;;
29724;SDS011;16636;48.394;15.468;2022-08-06T04:39:31;6.63;;;2.90;;
29724;SDS011;16636;48.394;15.468;2022-08-06T04:41:58;3.95;;;2.50;;
29724;SDS011;16636;48.394;15.468;2022-08-06T04:44:25;5.07;;;3.03;;
29724;SDS011;16636;48.394;15.468;2022-08-06T04:46:53;5.28;;;2.60;;
29724;SDS011;16636;48.394;15.468;2022-08-06T04:49:20;8.98;;;2.97;;
29724;SDS011;16636;48.394;15.468;2022-08-06T04:51:47;5.38;;;3.28;;
29724;SDS011;16636;48.394;15.468;2022-08-06T04:54:13;5.60;;;2.90;;
29724;SDS011;16636;48.394;15.468;2022-08-06T04:56:40;6.53;;;3.20;;
29724;SDS011;16636;48.394;15.468;2022-08-06T04:59:07;6.20;;;3.20;;
29724;SDS011;16636;48.394;15.468;2022-08-06T05:04:32;2.90;;;2.70;;
29724;SDS011;16636;48.394;15.468;2022-08-06T05:07:13;5.78;;;2.83;;
29724;SDS011;16636;48.394;15.468;2022-08-06T05:09:58;4.32;;;2.90;;
29724;SDS011;16636;48.394;15.468;2022-08-06T05:12:32;11.10;;;4.05;;
29724;SDS011;16636;48.394;15.468;2022-08-06T05:15:22;3.55;;;2.97;;
29724;SDS011;16636;48.394;15.468;2022-08-06T05:18:20;4.07;;;3.13;;
29724;SDS011;16636;48.394;15.468;2022-08-06T05:20:59;11.93;;;4.20;;
29724;SDS011;16636;48.394;15.468;2022-08-06T05:23:28;5.97;;;3.25;;
29724;SDS011;16636;48.394;15.468;2022-08-06T05:25:59;6.90;;;3.08;;
29724;SDS011;16636;48.394;15.468;2022-08-06T05:28:25;6.20;;;3.47;;
29724;SDS011;16636;48.394;15.468;2022-08-06T05:30:51;5.50;;;3.38;;
29724;SDS011;16636;48.394;15.468;2022-08-06T05:35:50;6.50;;;2.95;;
29724;SDS011;16636;48.394;15.468;2022-08-06T05:38:16;7.45;;;3.50;;
29724;SDS011;16636;48.394;15.468;2022-08-06T05:40:42;4.20;;;3.08;;
29724;SDS011;16636;48.394;15.468;2022-08-06T05:43:10;6.03;;;3.15;;
29724;SDS011;16636;48.394;15.468;2022-08-06T05:45:36;4.00;;;2.88;;
29724;SDS011;16636;48.394;15.468;2022-08-06T05:48:06;5.95;;;2.88;;
29724;SDS011;16636;48.394;15.468;2022-08-06T05:50:35;6.30;;;3.80;;
29724;SDS011;16636;48.394;15.468;2022-08-06T05:55:43;3.00;;;2.10;;
29724;SDS011;16636;48.394;15.468;2022-08-06T05:58:19;2.90;;;2.28;;
29724;SDS011;16636;48.394;15.468;2022-08-06T06:00:56;1.73;;;1.35;;
29724;SDS011;16636;48.394;15.468;2022-08-06T06:03:25;2.15;;;0.90;;
29724;SDS011;16636;48.394;15.468;2022-08-06T06:05:52;1.58;;;0.75;;
29724;SDS011;16636;48.394;15.468;2022-08-06T06:08:23;1.05;;;0.95;;
29724;SDS011;16636;48.394;15.468;2022-08-06T06:10:50;0.93;;;0.77;;
29724;SDS011;16636;48.394;15.468;2022-08-06T06:13:17;0.98;;;0.90;;
29724;SDS011;16636;48.394;15.468;2022-08-06T06:15:49;1.23;;;0.80;;
29724;SDS011;16636;48.394;15.468;2022-08-06T06:21:18;4.85;;;1.55;;
29724;SDS011;16636;48.394;15.468;2022-08-06T06:24:09;1.10;;;1.00;;
29724;SDS011;16636;48.394;15.468;2022-08-06T06:26:55;2.10;;;1.20;;
29724;SDS011;16636;48.394;15.468;2022-08-06T06:29:37;2.22;;;0.70;;
29724;SDS011;16636;48.394;15.468;2022-08-06T06:39:23;2.53;;;0.80;;
29724;SDS011;16636;48.394;15.468;2022-08-06T06:41:49;1.23;;;1.02;;
29724;SDS011;16636;48.394;15.468;2022-08-06T06:45:42;1.08;;;0.98;;
29724;SDS011;16636;48.394;15.468;2022-08-06T06:47:55;2.30;;;0.98;;
29724;SDS011;16636;48.394;15.468;2022-08-06T06:53:01;0.60;;;0.60;;
29724;SDS011;16636;48.394;15.468;2022-08-06T06:55:32;1.55;;;0.70;;
29724;SDS011;16636;48.394;15.468;2022-08-06T07:01:05;2.38;;;0.70;;
29724;SDS011;16636;48.394;15.468;2022-08-06T07:03:34;3.25;;;1.00;;
29724;SDS011;16636;48.394;15.468;2022-08-06T07:06:03;0.90;;;0.68;;
29724;SDS011;16636;48.394;15.468;2022-08-06T07:08:34;0.65;;;0.65;;
29724;SDS011;16636;48.394;15.468;2022-08-06T07:11:10;1.73;;;0.80;;
29724;SDS011;16636;48.394;15.468;2022-08-06T07:13:40;1.55;;;0.80;;
29724;SDS011;16636;48.394;15.468;2022-08-06T07:16:08;1.95;;;0.80;;
29724;SDS011;16636;48.394;15.468;2022-08-06T07:18:37;1.10;;;1.02;;
29724;SDS011;16636;48.394;15.468;2022-08-06T07:21:04;4.15;;;0.80;;
29724;SDS011;16636;48.394;15.468;2022-08-06T07:23:31;1.13;;;0.70;;
29724;SDS011;16636;48.394;15.468;2022-08-06T07:25:57;0.80;;;0.80;;
29724;SDS011;16636;48.394;15.468;2022-08-06T07:28:26;0.90;;;0.75;;
29724;SDS011;16636;48.394;15.468;2022-08-06T07:30:55;3.28;;;1.05;;
29724;SDS011;16636;48.394;15.468;2022-08-06T07:33:24;1.77;;;0.80;;
29724;SDS011;16636;48.394;15.468;2022-08-06T07:35:58;1.67;;;0.60;;
29724;SDS011;16636;48.394;15.468;2022-08-06T07:38:28;0.60;;;0.60;;
29724;SDS011;16636;48.394;15.468;2022-08-06T07:40:59;2.70;;;0.60;;
29724;SDS011;16636;48.394;15.468;2022-08-06T07:46:04;1.08;;;0.70;;
29724;SDS011;16636;48.394;15.468;2022-08-06T07:48:36;0.93;;;0.82;;
29724;SDS011;16636;48.394;15.468;2022-08-06T07:51:04;0.77;;;0.63;;
29724;SDS011;16636;48.394;15.468;2022-08-06T07:53:31;1.55;;;0.68;;
29724;SDS011;16636;48.394;15.468;2022-08-06T07:56:00;1.63;;;0.98;;
29724;SDS011;16636;48.394;15.468;2022-08-06T07:58:29;0.57;;;0.50;;
29724;SDS011;16636;48.394;15.468;2022-08-06T08:00:55;0.63;;;0.60;;
29724;SDS011;16636;48.394;15.468;2022-08-06T08:03:21;0.60;;;0.60;;
29724;SDS011;16636;48.394;15.468;2022-08-06T08:06:06;1.35;;;0.70;;
29724;SDS011;16636;48.394;15.468;2022-08-06T08:08:54;1.42;;;0.88;;
29724;SDS011;16636;48.394;15.468;2022-08-06T08:11:22;1.20;;;0.77;;
29724;SDS011;16636;48.394;15.468;2022-08-06T08:13:52;3.38;;;0.50;;
29724;SDS011;16636;48.394;15.468;2022-08-06T08:16:23;0.63;;;0.60;;
29724;SDS011;16636;48.394;15.468;2022-08-06T08:18:50;0.55;;;0.40;;
29724;SDS011;16636;48.394;15.468;2022-08-06T08:21:16;0.50;;;0.50;;
29724;SDS011;16636;48.394;15.468;2022-08-06T08:23:43;0.50;;;0.43;;
29724;SDS011;16636;48.394;15.468;2022-08-06T08:26:29;0.40;;;0.30;;
29724;SDS011;16636;48.394;15.468;2022-08-06T08:28:55;0.63;;;0.32;;
29724;SDS011;16636;48.394;15.468;2022-08-06T08:31:21;0.45;;;0.45;;
29724;SDS011;16636;48.394;15.468;2022-08-06T08:33:47;0.32;;;0.32;;
29724;SDS011;16636;48.394;15.468;2022-08-06T08:36:13;0.43;;;0.40;;
29724;SDS011;16636;48.394;15.468;2022-08-06T08:38:39;2.55;;;0.40;;
29724;SDS011;16636;48.394;15.468;2022-08-06T08:44:11;2.47;;;0.20;;
29724;SDS011;16636;48.394;15.468;2022-08-06T08:46:38;0.28;;;0.25;;
29724;SDS011;16636;48.394;15.468;2022-08-06T08:49:05;1.00;;;0.30;;
29724;SDS011;16636;48.394;15.468;2022-08-06T08:51:34;0.22;;;0.22;;
29724;SDS011;16636;48.394;15.468;2022-08-06T08:54:05;0.70;;;0.45;;
29724;SDS011;16636;48.394;15.468;2022-08-06T08:56:33;3.65;;;1.10;;
29724;SDS011;16636;48.394;15.468;2022-08-06T08:58:59;2.47;;;0.50;;
29724;SDS011;16636;48.394;15.468;2022-08-06T09:01:26;2.92;;;0.90;;
29724;SDS011;16636;48.394;15.468;2022-08-06T09:03:53;0.38;;;0.30;;
29724;SDS011;16636;48.394;15.468;2022-08-06T09:06:20;0.70;;;0.40;;
29724;SDS011;16636;48.394;15.468;2022-08-06T09:08:47;1.15;;;0.57;;
29724;SDS011;16636;48.394;15.468;2022-08-06T09:14:16;0.38;;;0.38;;
29724;SDS011;16636;48.394;15.468;2022-08-06T09:16:42;3.28;;;0.77;;
29724;SDS011;16636;48.394;15.468;2022-08-06T09:22:31;0.93;;;0.47;;
29724;SDS011;16636;48.394;15.468;2022-08-06T09:25:00;0.52;;;0.40;;
29724;SDS011;16636;48.394;15.468;2022-08-06T09:27:32;0.40;;;0.40;;
29724;SDS011;16636;48.394;15.468;2022-08-06T09:30:00;0.93;;;0.50;;
29724;SDS011;16636;48.394;15.468;2022-08-06T09:32:35;2.25;;;0.60;;
29724;SDS011;16636;48.394;15.468;2022-08-06T09:35:42;0.43;;;0.40;;
29724;SDS011;16636;48.394;15.468;2022-08-06T09:38:02;0.75;;;0.50;;
29724;SDS011;16636;48.394;15.468;2022-08-06T09:40:29;1.55;;;0.73;;
29724;SDS011;16636;48.394;15.468;2022-08-06T09:42:55;2.42;;;0.70;;
29724;SDS011;16636;48.394;15.468;2022-08-06T09:45:22;0.65;;;0.45;;
29724;SDS011;16636;48.394;15.468;2022-08-06T09:48:01;0.60;;;0.60;;
29724;SDS011;16636;48.394;15.468;2022-08-06T09:50:35;0.65;;;0.60;;
29724;SDS011;16636;48.394;15.468;2022-08-06T09:53:02;1.70;;;0.80;;
29724;SDS011;16636;48.394;15.468;2022-08-06T09:55:29;1.92;;;0.70;;
29724;SDS011;16636;48.394;15.468;2022-08-06T09:57:57;0.90;;;0.65;;
29724;SDS011;16636;48.394;15.468;2022-08-06T10:00:26;0.57;;;0.57;;
29724;SDS011;16636;48.394;15.468;2022-08-06T10:02:54;1.10;;;0.70;;
29724;SDS011;16636;48.394;15.468;2022-08-06T10:05:22;0.80;;;0.80;;
29724;SDS011;16636;48.394;15.468;2022-08-06T10:13:21;0.70;;;0.70;;
29724;SDS011;16636;48.394;15.468;2022-08-06T10:15:50;2.85;;;1.13;;
29724;SDS011;16636;48.394;15.468;2022-08-06T10:21:03;0.93;;;0.82;;
29724;SDS011;16636;48.394;15.468;2022-08-06T10:23:31;2.78;;;0.88;;
29724;SDS011;16636;48.394;15.468;2022-08-06T10:25:59;1.08;;;0.70;;
29724;SDS011;16636;48.394;15.468;2022-08-06T10:28:29;3.95;;;0.75;;
29724;SDS011;16636;48.394;15.468;2022-08-06T10:30:58;4.60;;;0.93;;
29724;SDS011;16636;48.394;15.468;2022-08-06T10:33:28;1.13;;;0.75;;
29724;SDS011;16636;48.394;15.468;2022-08-06T10:36:00;4.30;;;0.70;;
29724;SDS011;16636;48.394;15.468;2022-08-06T10:38:32;1.08;;;0.68;;
29724;SDS011;16636;48.394;15.468;2022-08-06T10:41:15;2.35;;;1.08;;
29724;SDS011;16636;48.394;15.468;2022-08-06T10:43:42;4.88;;;1.15;;
29724;SDS011;16636;48.394;15.468;2022-08-06T10:46:11;7.35;;;1.58;;
29724;SDS011;16636;48.394;15.468;2022-08-06T10:48:45;3.13;;;0.80;;
29724;SDS011;16636;48.394;15.468;2022-08-06T10:51:12;3.33;;;0.70;;
29724;SDS011;16636;48.394;15.468;2022-08-06T10:53:40;2.30;;;0.65;;
29724;SDS011;16636;48.394;15.468;2022-08-06T10:56:11;1.52;;;0.80;;
29724;SDS011;16636;48.394;15.468;2022-08-06T10:58:40;3.38;;;1.00;;
29724;SDS011;16636;48.394;15.468;2022-08-06T11:01:11;0.52;;;0.52;;
29724;SDS011;16636;48.394;15.468;2022-08-06T11:15:44;2.55;;;0.80;;
29724;SDS011;16636;48.394;15.468;2022-08-06T11:21:34;1.55;;;0.88;;
29724;SDS011;16636;48.394;15.468;2022-08-06T11:24:14;2.13;;;0.65;;
29724;SDS011;16636;48.394;15.468;2022-08-06T11:26:42;3.88;;;0.75;;
29724;SDS011;16636;48.394;15.468;2022-08-06T11:29:10;2.00;;;0.70;;
29724;SDS011;16636;48.394;15.468;2022-08-06T11:31:41;0.90;;;0.45;;
29724;SDS011;16636;48.394;15.468;2022-08-06T11:34:14;1.15;;;0.80;;
29724;SDS011;16636;48.394;15.468;2022-08-06T11:37:04;2.50;;;0.88;;
29724;SDS011;16636;48.394;15.468;2022-08-06T11:39:29;1.77;;;0.93;;
29724;SDS011;16636;48.394;15.468;2022-08-06T11:41:59;1.27;;;0.68;;
29724;SDS011;16636;48.394;15.468;2022-08-06T11:44:27;3.00;;;1.15;;
29724;SDS011;16636;48.394;15.468;2022-08-06T11:47:07;1.45;;;0.73;;
29724;SDS011;16636;48.394;15.468;2022-08-06T11:49:35;1.60;;;1.00;;
29724;SDS011;16636;48.394;15.468;2022-08-06T11:52:08;1.98;;;1.02;;
29724;SDS011;16636;48.394;15.468;2022-08-06T11:55:03;4.82;;;0.88;;
29724;SDS011;16636;48.394;15.468;2022-08-06T11:57:32;3.33;;;0.90;;
29724;SDS011;16636;48.394;15.468;2022-08-06T12:07:43;1.75;;;0.90;;
29724;SDS011;16636;48.394;15.468;2022-08-06T12:10:11;1.83;;;1.10;;
29724;SDS011;16636;48.394;15.468;2022-08-06T12:12:45;1.67;;;0.90;;
29724;SDS011;16636;48.394;15.468;2022-08-06T12:20:33;5.10;;;1.02;;
29724;SDS011;16636;48.394;15.468;2022-08-06T12:23:02;2.20;;;0.90;;
29724;SDS011;16636;48.394;15.468;2022-08-06T12:25:35;2.72;;;1.60;;
29724;SDS011;16636;48.394;15.468;2022-08-06T12:28:12;1.25;;;1.10;;
29724;SDS011;16636;48.394;15.468;2022-08-06T12:30:47;2.03;;;1.10;;
29724;SDS011;16636;48.394;15.468;2022-08-06T12:33:15;3.80;;;1.17;;
29724;SDS011;16636;48.394;15.468;2022-08-06T12:35:52;2.25;;;1.45;;
29724;SDS011;16636;48.394;15.468;2022-08-06T12:38:26;1.45;;;1.08;;
29724;SDS011;16636;48.394;15.468;2022-08-06T12:43:47;1.63;;;0.90;;
29724;SDS011;16636;48.394;15.468;2022-08-06T12:46:13;2.67;;;1.17;;
29724;SDS011;16636;48.394;15.468;2022-08-06T12:48:44;4.05;;;1.23;;
29724;SDS011;16636;48.394;15.468;2022-08-06T12:51:13;1.02;;;0.95;;
29724;SDS011;16636;48.394;15.468;2022-08-06T12:53:50;4.78;;;1.17;;
29724;SDS011;16636;48.394;15.468;2022-08-06T12:56:18;3.25;;;0.70;;
29724;SDS011;16636;48.394;15.468;2022-08-06T12:58:46;2.85;;;0.93;;
29724;SDS011;16636;48.394;15.468;2022-08-06T13:01:14;3.15;;;0.70;;
29724;SDS011;16636;48.394;15.468;2022-08-06T13:03:43;2.45;;;0.93;;
29724;SDS011;16636;48.394;15.468;2022-08-06T13:06:11;2.90;;;0.85;;
29724;SDS011;16636;48.394;15.468;2022-08-06T13:08:40;2.83;;;0.95;;
29724;SDS011;16636;48.394;15.468;2022-08-06T13:11:07;1.38;;;0.98;;
29724;SDS011;16636;48.394;15.468;2022-08-06T13:13:37;3.95;;;1.30;;
29724;SDS011;16636;48.394;15.468;2022-08-06T13:16:07;7.32;;;1.27;;
29724;SDS011;16636;48.394;15.468;2022-08-06T13:18:36;6.70;;;1.55;;
29724;SDS011;16636;48.394;15.468;2022-08-06T13:21:03;1.40;;;0.98;;
29724;SDS011;16636;48.394;15.468;2022-08-06T13:23:45;1.60;;;1.10;;
29724;SDS011;16636;48.394;15.468;2022-08-06T13:26:19;1.05;;;0.85;;
29724;SDS011;16636;48.394;15.468;2022-08-06T13:29:05;1.45;;;1.02;;
29724;SDS011;16636;48.394;15.468;2022-08-06T13:31:44;2.05;;;0.60;;
29724;SDS011;16636;48.394;15.468;2022-08-06T13:34:12;1.35;;;1.02;;
29724;SDS011;16636;48.394;15.468;2022-08-06T13:36:42;3.78;;;0.88;;
29724;SDS011;16636;48.394;15.468;2022-08-06T13:42:02;0.88;;;0.82;;
29724;SDS011;16636;48.394;15.468;2022-08-06T13:44:31;1.20;;;0.80;;
29724;SDS011;16636;48.394;15.468;2022-08-06T13:47:02;1.67;;;0.90;;
29724;SDS011;16636;48.394;15.468;2022-08-06T13:49:28;0.85;;;0.80;;
29724;SDS011;16636;48.394;15.468;2022-08-06T13:51:55;1.42;;;1.02;;
29724;SDS011;16636;48.394;15.468;2022-08-06T13:54:22;0.68;;;0.68;;
29724;SDS011;16636;48.394;15.468;2022-08-06T13:56:50;0.93;;;0.85;;
29724;SDS011;16636;48.394;15.468;2022-08-06T13:59:17;1.33;;;0.85;;
29724;SDS011;16636;48.394;15.468;2022-08-06T14:01:45;2.83;;;1.10;;
29724;SDS011;16636;48.394;15.468;2022-08-06T14:04:16;0.95;;;0.88;;
29724;SDS011;16636;48.394;15.468;2022-08-06T14:06:46;1.75;;;1.00;;
29724;SDS011;16636;48.394;15.468;2022-08-06T14:09:13;1.95;;;0.80;;
29724;SDS011;16636;48.394;15.468;2022-08-06T14:11:39;2.20;;;0.90;;
29724;SDS011;16636;48.394;15.468;2022-08-06T14:14:05;1.42;;;0.90;;
29724;SDS011;16636;48.394;15.468;2022-08-06T14:16:31;3.08;;;1.10;;
29724;SDS011;16636;48.394;15.468;2022-08-06T14:18:57;2.75;;;0.80;;
29724;SDS011;16636;48.394;15.468;2022-08-06T14:21:23;2.17;;;0.65;;
29724;SDS011;16636;48.394;15.468;2022-08-06T14:23:49;4.97;;;1.55;;
29724;SDS011;16636;48.394;15.468;2022-08-06T14:26:15;1.35;;;0.80;;
29724;SDS011;16636;48.394;15.468;2022-08-06T14:28:41;1.63;;;0.90;;
29724;SDS011;16636;48.394;15.468;2022-08-06T14:31:07;1.67;;;0.95;;
29724;SDS011;16636;48.394;15.468;2022-08-06T14:33:33;6.75;;;0.88;;
29724;SDS011;16636;48.394;15.468;2022-08-06T14:35:59;5.13;;;0.90;;
29724;SDS011;16636;48.394;15.468;2022-08-06T14:38:25;1.25;;;0.77;;
29724;SDS011;16636;48.394;15.468;2022-08-06T14:44:13;5.03;;;1.02;;
29724;SDS011;16636;48.394;15.468;2022-08-06T14:46:57;1.65;;;0.80;;
29724;SDS011;16636;48.394;15.468;2022-08-06T14:49:23;4.40;;;0.80;;
29724;SDS011;16636;48.394;15.468;2022-08-06T14:51:49;1.95;;;0.80;;
29724;SDS011;16636;48.394;15.468;2022-08-06T14:54:16;5.13;;;0.88;;
29724;SDS011;16636;48.394;15.468;2022-08-06T14:56:42;2.33;;;0.77;;
29724;SDS011;16636;48.394;15.468;2022-08-06T14:59:10;3.88;;;0.95;;
29724;SDS011;16636;48.394;15.468;2022-08-06T15:01:37;0.68;;;0.60;;
29724;SDS011;16636;48.394;15.468;2022-08-06T15:04:03;6.65;;;1.10;;
29724;SDS011;16636;48.394;15.468;2022-08-06T15:06:29;2.35;;;0.70;;
29724;SDS011;16636;48.394;15.468;2022-08-06T15:08:55;4.95;;;0.80;;
29724;SDS011;16636;48.394;15.468;2022-08-06T15:11:21;1.80;;;0.73;;
29724;SDS011;16636;48.394;15.468;2022-08-06T15:13:47;2.55;;;0.63;;
29724;SDS011;16636;48.394;15.468;2022-08-06T15:16:13;1.48;;;0.70;;
29724;SDS011;16636;48.394;15.468;2022-08-06T15:18:39;2.20;;;0.80;;
29724;SDS011;16636;48.394;15.468;2022-08-06T15:21:08;0.70;;;0.70;;
29724;SDS011;16636;48.394;15.468;2022-08-06T15:23:34;1.42;;;1.02;;
29724;SDS011;16636;48.394;15.468;2022-08-06T15:26:01;2.70;;;0.65;;
29724;SDS011;16636;48.394;15.468;2022-08-06T15:28:27;1.10;;;0.77;;
29724;SDS011;16636;48.394;15.468;2022-08-06T15:30:53;1.33;;;0.85;;
29724;SDS011;16636;48.394;15.468;2022-08-06T15:33:20;1.67;;;0.80;;
29724;SDS011;16636;48.394;15.468;2022-08-06T15:35:50;1.00;;;0.60;;
29724;SDS011;16636;48.394;15.468;2022-08-06T15:38:16;1.77;;;0.85;;
29724;SDS011;16636;48.394;15.468;2022-08-06T15:40:42;2.20;;;0.80;;
29724;SDS011;16636;48.394;15.468;2022-08-06T15:43:08;5.25;;;0.85;;
29724;SDS011;16636;48.394;15.468;2022-08-06T15:45:34;0.60;;;0.60;;
29724;SDS011;16636;48.394;15.468;2022-08-06T15:48:00;2.70;;;0.70;;
29724;SDS011;16636;48.394;15.468;2022-08-06T15:50:26;2.70;;;0.77;;
29724;SDS011;16636;48.394;15.468;2022-08-06T15:52:52;1.23;;;0.70;;
29724;SDS011;16636;48.394;15.468;2022-08-06T15:55:18;1.52;;;0.70;;
29724;SDS011;16636;48.394;15.468;2022-08-06T15:57:46;1.00;;;0.70;;
29724;SDS011;16636;48.394;15.468;2022-08-06T16:00:13;3.00;;;0.93;;
29724;SDS011;16636;48.394;15.468;2022-08-06T16:02:49;1.65;;;0.70;;
29724;SDS011;16636;48.394;15.468;2022-08-06T16:05:15;3.50;;;0.70;;
29724;SDS011;16636;48.394;15.468;2022-08-06T16:07:45;1.00;;;0.65;;
29724;SDS011;16636;48.394;15.468;2022-08-06T16:10:12;1.58;;;0.98;;
29724;SDS011;16636;48.394;15.468;2022-08-06T16:12:38;4.65;;;0.88;;
29724;SDS011;16636;48.394;15.468;2022-08-06T16:15:13;0.82;;;0.80;;
29724;SDS011;16636;48.394;15.468;2022-08-06T16:17:39;0.80;;;0.77;;
29724;SDS011;16636;48.394;15.468;2022-08-06T16:20:05;3.47;;;0.93;;
29724;SDS011;16636;48.394;15.468;2022-08-06T16:22:44;2.75;;;0.90;;
29724;SDS011;16636;48.394;15.468;2022-08-06T16:25:10;5.32;;;0.95;;
29724;SDS011;16636;48.394;15.468;2022-08-06T16:27:38;3.83;;;0.85;;
29724;SDS011;16636;48.394;15.468;2022-08-06T16:30:04;0.70;;;0.70;;
29724;SDS011;16636;48.394;15.468;2022-08-06T16:32:31;2.95;;;0.75;;
29724;SDS011;16636;48.394;15.468;2022-08-06T16:34:57;2.15;;;0.88;;
29724;SDS011;16636;48.394;15.468;2022-08-06T16:37:25;1.52;;;0.70;;